sensor_id;sensor_type;location;lat;lon;timestamp;pressure;altitude;pressure_sealevel;temperature;humidity
59939;BME280;45801;51.810;19.444;2023-03-18T00:00:09;99344.88;;;5.61;45.81
59939;BME280;45801;51.810;19.444;2023-03-18T00:02:56;99343.88;;;5.59;45.65
59939;BME280;45801;51.810;19.444;2023-03-18T00:05:23;99346.44;;;5.59;46.00
59939;BME280;45801;51.810;19.444;2023-03-18T00:07:50;99349.52;;;5.58;45.98
59939;BME280;45801;51.810;19.444;2023-03-18T00:10:16;99345.86;;;5.58;45.97
59939;BME280;45801;51.810;19.444;2023-03-18T00:12:44;99346.48;;;5.57;45.88
59939;BME280;45801;51.810;19.444;2023-03-18T00:15:13;99349.59;;;5.57;45.86
59939;BME280;45801;51.810;19.444;2023-03-18T00:17:41;99349.48;;;5.55;46.06
59939;BME280;45801;51.810;19.444;2023-03-18T00:20:09;99350.23;;;5.53;46.02
59939;BME280;45801;51.810;19.444;2023-03-18T00:22:39;99350.96;;;5.51;46.06
59939;BME280;45801;51.810;19.444;2023-03-18T00:25:07;99351.38;;;5.49;46.07
59939;BME280;45801;51.810;19.444;2023-03-18T00:27:34;99352.30;;;5.47;46.11
59939;BME280;45801;51.810;19.444;2023-03-18T00:30:01;99353.23;;;5.48;46.01
59939;BME280;45801;51.810;19.444;2023-03-18T00:32:28;99352.52;;;5.47;46.23
59939;BME280;45801;51.810;19.444;2023-03-18T00:34:55;99352.67;;;5.50;46.23
59939;BME280;45801;51.810;19.444;2023-03-18T00:37:23;99352.25;;;5.52;46.22
59939;BME280;45801;51.810;19.444;2023-03-18T00:40:01;99349.55;;;5.50;46.33
59939;BME280;45801;51.810;19.444;2023-03-18T00:42:33;99346.90;;;5.47;46.33
59939;BME280;45801;51.810;19.444;2023-03-18T00:45:07;99336.77;;;5.46;46.38
59939;BME280;45801;51.810;19.444;2023-03-18T00:47:34;99335.44;;;5.44;46.52
59939;BME280;45801;51.810;19.444;2023-03-18T00:50:01;99330.27;;;5.42;46.42
59939;BME280;45801;51.810;19.444;2023-03-18T00:52:28;99327.13;;;5.39;46.55
59939;BME280;45801;51.810;19.444;2023-03-18T00:54:56;99324.14;;;5.33;46.48
59939;BME280;45801;51.810;19.444;2023-03-18T00:57:22;99316.44;;;5.27;46.69
59939;BME280;45801;51.810;19.444;2023-03-18T00:59:49;99313.44;;;5.21;46.82
59939;BME280;45801;51.810;19.444;2023-03-18T01:02:17;99308.54;;;5.21;46.85
59939;BME280;45801;51.810;19.444;2023-03-18T01:04:44;99303.99;;;5.17;47.16
59939;BME280;45801;51.810;19.444;2023-03-18T01:07:10;99304.15;;;5.17;46.96
59939;BME280;45801;51.810;19.444;2023-03-18T01:09:37;99301.57;;;5.18;46.89
59939;BME280;45801;51.810;19.444;2023-03-18T01:12:10;99301.73;;;5.18;47.06
59939;BME280;45801;51.810;19.444;2023-03-18T01:14:38;99296.30;;;5.17;46.91
59939;BME280;45801;51.810;19.444;2023-03-18T01:17:06;99295.15;;;5.18;47.07
59939;BME280;45801;51.810;19.444;2023-03-18T01:19:33;99294.01;;;5.16;46.94
59939;BME280;45801;51.810;19.444;2023-03-18T01:22:01;99289.77;;;5.15;46.85
59939;BME280;45801;51.810;19.444;2023-03-18T01:24:30;99287.16;;;5.09;47.03
59939;BME280;45801;51.810;19.444;2023-03-18T01:26:57;99286.63;;;5.04;47.20
59939;BME280;45801;51.810;19.444;2023-03-18T01:29:25;99283.59;;;5.00;47.17
59939;BME280;45801;51.810;19.444;2023-03-18T01:31:51;99282.52;;;4.97;47.26
59939;BME280;45801;51.810;19.444;2023-03-18T01:34:28;99280.27;;;4.97;47.21
59939;BME280;45801;51.810;19.444;2023-03-18T01:36:56;99280.83;;;4.98;47.30
59939;BME280;45801;51.810;19.444;2023-03-18T01:39:23;99283.17;;;4.99;47.12
59939;BME280;45801;51.810;19.444;2023-03-18T01:41:50;99283.78;;;5.00;46.97
59939;BME280;45801;51.810;19.444;2023-03-18T01:44:19;99285.72;;;5.01;46.92
59939;BME280;45801;51.810;19.444;2023-03-18T01:46:50;99283.42;;;5.00;46.93
59939;BME280;45801;51.810;19.444;2023-03-18T01:49:21;99284.34;;;4.95;46.98
59939;BME280;45801;51.810;19.444;2023-03-18T01:52:05;99287.02;;;4.94;47.38
59939;BME280;45801;51.810;19.444;2023-03-18T01:54:36;99286.84;;;4.94;47.31
59939;BME280;45801;51.810;19.444;2023-03-18T01:57:05;99281.67;;;4.92;47.36
59939;BME280;45801;51.810;19.444;2023-03-18T01:59:33;99284.30;;;4.92;47.39
59939;BME280;45801;51.810;19.444;2023-03-18T02:02:05;99283.93;;;4.94;47.23
59939;BME280;45801;51.810;19.444;2023-03-18T02:04:37;99288.20;;;4.94;47.37
59939;BME280;45801;51.810;19.444;2023-03-18T02:07:05;99291.09;;;4.93;47.39
59939;BME280;45801;51.810;19.444;2023-03-18T02:09:33;99290.02;;;4.95;47.17
59939;BME280;45801;51.810;19.444;2023-03-18T02:12:01;99287.83;;;4.96;47.33
59939;BME280;45801;51.810;19.444;2023-03-18T02:14:29;99288.43;;;4.97;47.43
59939;BME280;45801;51.810;19.444;2023-03-18T02:17:02;99289.27;;;5.00;47.31
59939;BME280;45801;51.810;19.444;2023-03-18T02:22:32;99284.95;;;4.94;47.60
59939;BME280;45801;51.810;19.444;2023-03-18T02:25:22;99281.90;;;4.90;47.44
59939;BME280;45801;51.810;19.444;2023-03-18T02:27:53;99282.58;;;4.87;47.60
59939;BME280;45801;51.810;19.444;2023-03-18T02:30:30;99282.77;;;4.85;47.54
59939;BME280;45801;51.810;19.444;2023-03-18T02:32:58;99280.58;;;4.81;47.63
59939;BME280;45801;51.810;19.444;2023-03-18T02:35:27;99281.46;;;4.78;47.90
59939;BME280;45801;51.810;19.444;2023-03-18T02:37:54;99280.91;;;4.78;47.76
59939;BME280;45801;51.810;19.444;2023-03-18T02:40:28;99281.00;;;4.76;47.83
59939;BME280;45801;51.810;19.444;2023-03-18T02:42:55;99277.92;;;4.77;47.73
59939;BME280;45801;51.810;19.444;2023-03-18T02:45:44;99278.73;;;4.79;47.51
59939;BME280;45801;51.810;19.444;2023-03-18T02:48:17;99274.90;;;4.79;47.67
59939;BME280;45801;51.810;19.444;2023-03-18T02:50:46;99269.80;;;4.78;47.56
59939;BME280;45801;51.810;19.444;2023-03-18T02:53:14;99269.63;;;4.78;47.57
59939;BME280;45801;51.810;19.444;2023-03-18T02:55:41;99268.66;;;4.79;47.71
59939;BME280;45801;51.810;19.444;2023-03-18T02:58:08;99268.27;;;4.78;47.84
59939;BME280;45801;51.810;19.444;2023-03-18T03:00:34;99266.34;;;4.78;47.95
59939;BME280;45801;51.810;19.444;2023-03-18T03:03:01;99263.08;;;4.78;47.78
59939;BME280;45801;51.810;19.444;2023-03-18T03:05:30;99264.05;;;4.80;47.65
59939;BME280;45801;51.810;19.444;2023-03-18T03:07:56;99262.77;;;4.82;47.46
59939;BME280;45801;51.810;19.444;2023-03-18T03:10:23;99262.64;;;4.80;47.61
59939;BME280;45801;51.810;19.444;2023-03-18T03:12:49;99265.14;;;4.78;47.65
59939;BME280;45801;51.810;19.444;2023-03-18T03:15:16;99268.70;;;4.77;47.54
59939;BME280;45801;51.810;19.444;2023-03-18T03:17:44;99271.07;;;4.76;47.62
59939;BME280;45801;51.810;19.444;2023-03-18T03:20:10;99267.16;;;4.74;47.63
59939;BME280;45801;51.810;19.444;2023-03-18T03:22:37;99268.65;;;4.73;47.89
59939;BME280;45801;51.810;19.444;2023-03-18T03:25:04;99267.54;;;4.72;47.95
59939;BME280;45801;51.810;19.444;2023-03-18T03:27:31;99265.16;;;4.71;47.81
59939;BME280;45801;51.810;19.444;2023-03-18T03:29:58;99264.16;;;4.69;47.80
59939;BME280;45801;51.810;19.444;2023-03-18T03:32:24;99263.56;;;4.62;48.10
59939;BME280;45801;51.810;19.444;2023-03-18T03:34:52;99265.44;;;4.54;48.27
59939;BME280;45801;51.810;19.444;2023-03-18T03:37:18;99270.15;;;4.50;48.04
59939;BME280;45801;51.810;19.444;2023-03-18T03:39:45;99269.93;;;4.46;48.30
59939;BME280;45801;51.810;19.444;2023-03-18T03:42:11;99276.92;;;4.44;48.43
59939;BME280;45801;51.810;19.444;2023-03-18T03:44:38;99275.27;;;4.43;48.42
59939;BME280;45801;51.810;19.444;2023-03-18T03:47:04;99276.24;;;4.44;48.34
59939;BME280;45801;51.810;19.444;2023-03-18T03:49:31;99273.86;;;4.42;48.61
59939;BME280;45801;51.810;19.444;2023-03-18T03:51:58;99271.02;;;4.39;48.82
59939;BME280;45801;51.810;19.444;2023-03-18T03:54:24;99270.81;;;4.38;48.89
59939;BME280;45801;51.810;19.444;2023-03-18T03:56:53;99266.88;;;4.37;48.87
59939;BME280;45801;51.810;19.444;2023-03-18T03:59:19;99261.72;;;4.35;49.16
59939;BME280;45801;51.810;19.444;2023-03-18T04:01:46;99257.70;;;4.34;48.82
59939;BME280;45801;51.810;19.444;2023-03-18T04:04:12;99258.61;;;4.33;48.99
59939;BME280;45801;51.810;19.444;2023-03-18T04:06:39;99261.31;;;4.32;48.74
59939;BME280;45801;51.810;19.444;2023-03-18T04:09:05;99267.55;;;4.32;49.05
59939;BME280;45801;51.810;19.444;2023-03-18T04:11:32;99267.08;;;4.32;48.86
59939;BME280;45801;51.810;19.444;2023-03-18T04:13:58;99268.49;;;4.30;48.85
59939;BME280;45801;51.810;19.444;2023-03-18T04:16:26;99271.94;;;4.29;48.82
59939;BME280;45801;51.810;19.444;2023-03-18T04:18:54;99272.98;;;4.27;48.85
59939;BME280;45801;51.810;19.444;2023-03-18T04:21:20;99272.29;;;4.27;48.75
59939;BME280;45801;51.810;19.444;2023-03-18T04:23:48;99274.65;;;4.29;48.80
59939;BME280;45801;51.810;19.444;2023-03-18T04:26:14;99272.01;;;4.28;48.88
59939;BME280;45801;51.810;19.444;2023-03-18T04:28:41;99274.18;;;4.27;49.16
59939;BME280;45801;51.810;19.444;2023-03-18T04:31:07;99272.71;;;4.26;48.90
59939;BME280;45801;51.810;19.444;2023-03-18T04:33:34;99275.64;;;4.23;48.80
59939;BME280;45801;51.810;19.444;2023-03-18T04:36:01;99279.83;;;4.18;49.04
59939;BME280;45801;51.810;19.444;2023-03-18T04:38:27;99283.52;;;4.17;49.17
59939;BME280;45801;51.810;19.444;2023-03-18T04:40:54;99290.81;;;4.17;49.20
59939;BME280;45801;51.810;19.444;2023-03-18T04:43:21;99288.34;;;4.16;49.20
59939;BME280;45801;51.810;19.444;2023-03-18T04:45:48;99289.81;;;4.17;49.07
59939;BME280;45801;51.810;19.444;2023-03-18T04:48:14;99291.63;;;4.16;49.10
59939;BME280;45801;51.810;19.444;2023-03-18T04:50:41;99289.02;;;4.16;49.33
59939;BME280;45801;51.810;19.444;2023-03-18T04:53:07;99286.85;;;4.15;49.36
59939;BME280;45801;51.810;19.444;2023-03-18T04:55:34;99285.73;;;4.13;49.19
59939;BME280;45801;51.810;19.444;2023-03-18T04:58:00;99285.58;;;4.11;49.52
59939;BME280;45801;51.810;19.444;2023-03-18T05:00:27;99286.50;;;4.09;49.33
59939;BME280;45801;51.810;19.444;2023-03-18T05:02:53;99284.80;;;4.07;49.30
59939;BME280;45801;51.810;19.444;2023-03-18T05:05:20;99284.91;;;4.06;49.19
59939;BME280;45801;51.810;19.444;2023-03-18T05:07:46;99287.05;;;4.04;49.59
59939;BME280;45801;51.810;19.444;2023-03-18T05:10:13;99284.56;;;4.04;49.70
59939;BME280;45801;51.810;19.444;2023-03-18T05:12:40;99287.09;;;4.05;49.45
59939;BME280;45801;51.810;19.444;2023-03-18T05:15:07;99288.56;;;4.06;49.39
59939;BME280;45801;51.810;19.444;2023-03-18T05:17:34;99286.23;;;4.08;49.47
59939;BME280;45801;51.810;19.444;2023-03-18T05:20:00;99290.50;;;4.10;49.24
59939;BME280;45801;51.810;19.444;2023-03-18T05:22:27;99287.80;;;4.11;49.45
59939;BME280;45801;51.810;19.444;2023-03-18T05:24:53;99289.52;;;4.11;49.16
59939;BME280;45801;51.810;19.444;2023-03-18T05:27:22;99287.77;;;4.13;49.22
59939;BME280;45801;51.810;19.444;2023-03-18T05:29:49;99291.93;;;4.15;49.04
59939;BME280;45801;51.810;19.444;2023-03-18T05:32:15;99293.41;;;4.17;49.10
59939;BME280;45801;51.810;19.444;2023-03-18T05:34:42;99295.39;;;4.20;48.89
59939;BME280;45801;51.810;19.444;2023-03-18T05:37:11;99296.33;;;4.21;48.74
59939;BME280;45801;51.810;19.444;2023-03-18T05:39:39;99300.61;;;4.20;49.10
59939;BME280;45801;51.810;19.444;2023-03-18T05:42:06;99303.84;;;4.22;49.23
59939;BME280;45801;51.810;19.444;2023-03-18T05:44:33;99307.98;;;4.22;49.22
59939;BME280;45801;51.810;19.444;2023-03-18T05:47:00;99309.09;;;4.20;49.29
59939;BME280;45801;51.810;19.444;2023-03-18T05:49:28;99306.80;;;4.20;49.18
59939;BME280;45801;51.810;19.444;2023-03-18T05:51:55;99306.18;;;4.23;48.86
59939;BME280;45801;51.810;19.444;2023-03-18T05:54:22;99306.00;;;4.28;48.77
59939;BME280;45801;51.810;19.444;2023-03-18T05:56:49;99306.47;;;4.30;48.94
59939;BME280;45801;51.810;19.444;2023-03-18T05:59:18;99304.35;;;4.32;48.77
59939;BME280;45801;51.810;19.444;2023-03-18T06:01:46;99305.33;;;4.34;48.94
59939;BME280;45801;51.810;19.444;2023-03-18T06:04:12;99313.79;;;4.36;48.91
59939;BME280;45801;51.810;19.444;2023-03-18T06:06:38;99315.84;;;4.38;48.90
59939;BME280;45801;51.810;19.444;2023-03-18T06:09:07;99316.10;;;4.36;49.04
59939;BME280;45801;51.810;19.444;2023-03-18T06:11:35;99316.59;;;4.38;48.84
59939;BME280;45801;51.810;19.444;2023-03-18T06:14:04;99312.84;;;4.42;48.69
59939;BME280;45801;51.810;19.444;2023-03-18T06:16:32;99312.45;;;4.47;48.68
59939;BME280;45801;51.810;19.444;2023-03-18T06:18:59;99310.52;;;4.46;48.69
59939;BME280;45801;51.810;19.444;2023-03-18T06:21:26;99308.57;;;4.45;48.59
59939;BME280;45801;51.810;19.444;2023-03-18T06:23:53;99310.43;;;4.50;48.71
59939;BME280;45801;51.810;19.444;2023-03-18T06:26:20;99308.59;;;4.51;48.48
59939;BME280;45801;51.810;19.444;2023-03-18T06:28:47;99309.70;;;4.52;48.34
59939;BME280;45801;51.810;19.444;2023-03-18T06:31:14;99314.50;;;4.56;48.27
59939;BME280;45801;51.810;19.444;2023-03-18T06:33:42;99320.25;;;4.62;48.47
59939;BME280;45801;51.810;19.444;2023-03-18T06:36:08;99318.61;;;4.66;48.41
59939;BME280;45801;51.810;19.444;2023-03-18T06:38:35;99320.50;;;4.65;48.38
59939;BME280;45801;51.810;19.444;2023-03-18T06:41:03;99320.29;;;4.65;48.58
59939;BME280;45801;51.810;19.444;2023-03-18T06:43:30;99321.63;;;4.67;48.42
59939;BME280;45801;51.810;19.444;2023-03-18T06:45:57;99313.86;;;4.70;48.34
59939;BME280;45801;51.810;19.444;2023-03-18T06:48:25;99319.00;;;4.74;48.32
59939;BME280;45801;51.810;19.444;2023-03-18T06:50:51;99322.44;;;4.79;48.21
59939;BME280;45801;51.810;19.444;2023-03-18T06:53:17;99324.15;;;4.84;48.01
59939;BME280;45801;51.810;19.444;2023-03-18T06:55:44;99324.89;;;4.85;47.77
59939;BME280;45801;51.810;19.444;2023-03-18T06:58:11;99325.48;;;4.83;48.02
59939;BME280;45801;51.810;19.444;2023-03-18T07:00:37;99327.79;;;4.84;48.05
59939;BME280;45801;51.810;19.444;2023-03-18T07:03:06;99328.25;;;4.88;48.04
59939;BME280;45801;51.810;19.444;2023-03-18T07:05:33;99328.41;;;4.95;47.92
59939;BME280;45801;51.810;19.444;2023-03-18T07:08:00;99325.59;;;5.00;48.12
59939;BME280;45801;51.810;19.444;2023-03-18T07:10:29;99325.88;;;5.04;47.89
59939;BME280;45801;51.810;19.444;2023-03-18T07:12:55;99324.48;;;5.02;47.72
59939;BME280;45801;51.810;19.444;2023-03-18T07:15:23;99327.54;;;5.03;47.80
59939;BME280;45801;51.810;19.444;2023-03-18T07:17:50;99329.77;;;5.08;47.74
59939;BME280;45801;51.810;19.444;2023-03-18T07:20:18;99329.70;;;5.15;47.81
59939;BME280;45801;51.810;19.444;2023-03-18T07:22:45;99325.35;;;5.23;47.61
59939;BME280;45801;51.810;19.444;2023-03-18T07:25:12;99327.81;;;5.31;47.80
59939;BME280;45801;51.810;19.444;2023-03-18T07:27:40;99330.09;;;5.40;47.50
59939;BME280;45801;51.810;19.444;2023-03-18T07:30:08;99325.30;;;5.46;47.20
59939;BME280;45801;51.810;19.444;2023-03-18T07:32:36;99323.02;;;5.51;46.95
59939;BME280;45801;51.810;19.444;2023-03-18T07:35:04;99322.59;;;5.53;46.93
59939;BME280;45801;51.810;19.444;2023-03-18T07:37:31;99317.40;;;5.56;47.15
59939;BME280;45801;51.810;19.444;2023-03-18T07:39:58;99318.92;;;5.63;47.10
59939;BME280;45801;51.810;19.444;2023-03-18T07:42:25;99319.46;;;5.74;47.20
59939;BME280;45801;51.810;19.444;2023-03-18T07:44:52;99318.64;;;5.86;47.18
59939;BME280;45801;51.810;19.444;2023-03-18T07:47:18;99314.96;;;5.96;47.04
59939;BME280;45801;51.810;19.444;2023-03-18T07:49:46;99314.54;;;6.06;46.62
59939;BME280;45801;51.810;19.444;2023-03-18T07:52:13;99313.23;;;6.13;46.24
59939;BME280;45801;51.810;19.444;2023-03-18T07:54:39;99309.11;;;6.20;46.20
59939;BME280;45801;51.810;19.444;2023-03-18T07:57:08;99305.67;;;6.26;45.78
59939;BME280;45801;51.810;19.444;2023-03-18T07:59:35;99304.13;;;6.29;45.57
59939;BME280;45801;51.810;19.444;2023-03-18T08:02:03;99302.56;;;6.35;45.88
59939;BME280;45801;51.810;19.444;2023-03-18T08:04:30;99298.26;;;6.44;46.16
59939;BME280;45801;51.810;19.444;2023-03-18T08:06:57;99291.91;;;6.52;45.90
59939;BME280;45801;51.810;19.444;2023-03-18T08:09:24;99292.95;;;6.57;45.48
59939;BME280;45801;51.810;19.444;2023-03-18T08:11:52;99293.60;;;6.65;45.57
59939;BME280;45801;51.810;19.444;2023-03-18T08:14:19;99290.02;;;6.72;45.22
59939;BME280;45801;51.810;19.444;2023-03-18T08:16:46;99286.15;;;6.81;45.56
59939;BME280;45801;51.810;19.444;2023-03-18T08:19:13;99288.59;;;6.90;45.41
59939;BME280;45801;51.810;19.444;2023-03-18T08:21:40;99283.96;;;6.97;45.01
59939;BME280;45801;51.810;19.444;2023-03-18T08:24:08;99282.36;;;7.02;45.12
59939;BME280;45801;51.810;19.444;2023-03-18T08:26:35;99282.92;;;7.09;45.05
59939;BME280;45801;51.810;19.444;2023-03-18T08:29:02;99286.84;;;7.14;44.92
59939;BME280;45801;51.810;19.444;2023-03-18T08:31:29;99285.42;;;7.23;44.90
59939;BME280;45801;51.810;19.444;2023-03-18T08:33:56;99278.10;;;7.31;44.57
59939;BME280;45801;51.810;19.444;2023-03-18T08:36:23;99277.57;;;7.40;44.47
59939;BME280;45801;51.810;19.444;2023-03-18T08:38:50;99275.60;;;7.49;44.37
59939;BME280;45801;51.810;19.444;2023-03-18T08:41:17;99279.44;;;7.58;44.19
59939;BME280;45801;51.810;19.444;2023-03-18T08:43:44;99272.68;;;7.69;44.37
59939;BME280;45801;51.810;19.444;2023-03-18T08:46:12;99270.70;;;7.77;43.72
59939;BME280;45801;51.810;19.444;2023-03-18T08:48:38;99275.99;;;7.81;43.26
59939;BME280;45801;51.810;19.444;2023-03-18T08:51:07;99280.34;;;7.88;43.27
59939;BME280;45801;51.810;19.444;2023-03-18T08:53:34;99281.39;;;7.98;43.68
59939;BME280;45801;51.810;19.444;2023-03-18T08:56:01;99281.48;;;8.09;43.41
59939;BME280;45801;51.810;19.444;2023-03-18T08:58:28;99286.48;;;8.21;43.18
59939;BME280;45801;51.810;19.444;2023-03-18T09:00:55;99282.34;;;8.31;42.94
59939;BME280;45801;51.810;19.444;2023-03-18T09:03:21;99276.09;;;8.39;42.45
59939;BME280;45801;51.810;19.444;2023-03-18T09:05:50;99275.77;;;8.45;42.65
59939;BME280;45801;51.810;19.444;2023-03-18T09:08:18;99269.53;;;8.56;43.16
59939;BME280;45801;51.810;19.444;2023-03-18T09:10:44;99267.05;;;8.72;43.49
59939;BME280;45801;51.810;19.444;2023-03-18T09:13:11;99265.69;;;8.87;43.34
59939;BME280;45801;51.810;19.444;2023-03-18T09:15:39;99265.89;;;8.98;43.01
59939;BME280;45801;51.810;19.444;2023-03-18T09:18:09;99262.70;;;9.05;42.00
59939;BME280;45801;51.810;19.444;2023-03-18T09:20:36;99261.01;;;9.13;42.58
59939;BME280;45801;51.810;19.444;2023-03-18T09:23:03;99263.77;;;9.30;42.49
59939;BME280;45801;51.810;19.444;2023-03-18T09:25:29;99261.08;;;9.43;41.90
59939;BME280;45801;51.810;19.444;2023-03-18T09:27:56;99257.74;;;9.50;40.82
59939;BME280;45801;51.810;19.444;2023-03-18T09:30:22;99256.05;;;9.55;40.90
59939;BME280;45801;51.810;19.444;2023-03-18T09:32:50;99252.20;;;9.62;40.90
59939;BME280;45801;51.810;19.444;2023-03-18T09:35:17;99252.67;;;9.72;40.78
59939;BME280;45801;51.810;19.444;2023-03-18T09:37:43;99253.02;;;9.84;40.74
59939;BME280;45801;51.810;19.444;2023-03-18T09:40:20;99249.63;;;9.93;41.19
59939;BME280;45801;51.810;19.444;2023-03-18T09:45:54;99242.90;;;10.11;39.95
59939;BME280;45801;51.810;19.444;2023-03-18T09:54:04;99240.67;;;10.43;39.79
59939;BME280;45801;51.810;19.444;2023-03-18T09:56:35;99240.63;;;10.54;39.28
59939;BME280;45801;51.810;19.444;2023-03-18T09:59:29;99244.50;;;10.63;39.21
59939;BME280;45801;51.810;19.444;2023-03-18T10:01:59;99240.92;;;10.73;40.49
59939;BME280;45801;51.810;19.444;2023-03-18T10:04:26;99234.27;;;10.90;40.09
59939;BME280;45801;51.810;19.444;2023-03-18T10:07:02;99230.70;;;11.05;39.67
59939;BME280;45801;51.810;19.444;2023-03-18T10:09:37;99230.15;;;11.18;39.38
59939;BME280;45801;51.810;19.444;2023-03-18T10:14:51;99223.63;;;11.38;38.85
59939;BME280;45801;51.810;19.444;2023-03-18T10:17:30;99224.40;;;11.49;37.21
59939;BME280;45801;51.810;19.444;2023-03-18T10:20:00;99219.02;;;11.55;36.07
59939;BME280;45801;51.810;19.444;2023-03-18T10:25:25;99218.23;;;11.71;37.26
59939;BME280;45801;51.810;19.444;2023-03-18T10:28:03;99216.44;;;11.79;35.94
59939;BME280;45801;51.810;19.444;2023-03-18T10:38:29;99206.80;;;11.93;34.17
59939;BME280;45801;51.810;19.444;2023-03-18T10:41:00;99207.16;;;11.94;32.58
59939;BME280;45801;51.810;19.444;2023-03-18T10:43:31;99210.56;;;11.99;32.74
59939;BME280;45801;51.810;19.444;2023-03-18T10:46:00;99208.20;;;12.07;32.64
59939;BME280;45801;51.810;19.444;2023-03-18T10:48:31;99204.07;;;12.09;32.54
59939;BME280;45801;51.810;19.444;2023-03-18T10:53:41;99203.29;;;12.21;34.22
59939;BME280;45801;51.810;19.444;2023-03-18T10:56:12;99202.65;;;12.33;34.18
59939;BME280;45801;51.810;19.444;2023-03-18T10:58:42;99199.40;;;12.45;33.68
59939;BME280;45801;51.810;19.444;2023-03-18T11:01:11;99195.07;;;12.57;33.82
59939;BME280;45801;51.810;19.444;2023-03-18T11:03:44;99192.96;;;12.68;33.86
59939;BME280;45801;51.810;19.444;2023-03-18T11:06:18;99190.45;;;12.76;33.47
59939;BME280;45801;51.810;19.444;2023-03-18T11:08:48;99188.40;;;12.84;33.09
59939;BME280;45801;51.810;19.444;2023-03-18T11:11:19;99191.21;;;12.94;33.55
59939;BME280;45801;51.810;19.444;2023-03-18T11:13:56;99191.13;;;13.02;33.35
59939;BME280;45801;51.810;19.444;2023-03-18T11:22:26;99179.61;;;13.21;33.67
59939;BME280;45801;51.810;19.444;2023-03-18T11:27:41;99176.60;;;13.26;32.34
59939;BME280;45801;51.810;19.444;2023-03-18T11:30:20;99173.50;;;13.29;32.01
59939;BME280;45801;51.810;19.444;2023-03-18T11:33:01;99170.55;;;13.30;32.29
59939;BME280;45801;51.810;19.444;2023-03-18T11:35:49;99166.52;;;13.41;34.40
59939;BME280;45801;51.810;19.444;2023-03-18T11:38:27;99163.16;;;13.63;35.04
59939;BME280;45801;51.810;19.444;2023-03-18T11:43:37;99158.48;;;14.08;33.89
59939;BME280;45801;51.810;19.444;2023-03-18T11:46:07;99157.45;;;14.29;31.46
59939;BME280;45801;51.810;19.444;2023-03-18T11:48:37;99159.73;;;14.41;31.35
59939;BME280;45801;51.810;19.444;2023-03-18T11:51:32;99154.02;;;14.52;32.30
59939;BME280;45801;51.810;19.444;2023-03-18T11:54:11;99150.63;;;14.63;32.32
59939;BME280;45801;51.810;19.444;2023-03-18T11:56:46;99148.54;;;14.71;31.90
59939;BME280;45801;51.810;19.444;2023-03-18T12:07:59;99134.14;;;14.60;30.20
59939;BME280;45801;51.810;19.444;2023-03-18T12:10:52;99130.83;;;14.61;31.82
59939;BME280;45801;51.810;19.444;2023-03-18T12:18:30;99131.52;;;14.81;31.24
59939;BME280;45801;51.810;19.444;2023-03-18T12:26:12;99133.16;;;15.06;31.54
59939;BME280;45801;51.810;19.444;2023-03-18T12:32:48;99129.85;;;15.23;30.39
59939;BME280;45801;51.810;19.444;2023-03-18T12:46:02;99131.45;;;15.63;29.73
59939;BME280;45801;51.810;19.444;2023-03-18T12:48:37;99126.27;;;15.76;29.66
59939;BME280;45801;51.810;19.444;2023-03-18T12:51:21;99130.38;;;15.86;28.81
59939;BME280;45801;51.810;19.444;2023-03-18T12:53:56;99125.40;;;15.94;28.96
59939;BME280;45801;51.810;19.444;2023-03-18T12:56:27;99123.73;;;15.89;28.53
59939;BME280;45801;51.810;19.444;2023-03-18T12:59:07;99122.92;;;15.77;28.70
59939;BME280;45801;51.810;19.444;2023-03-18T13:04:35;99120.89;;;15.73;30.80
59939;BME280;45801;51.810;19.444;2023-03-18T13:07:11;99121.91;;;15.71;29.85
59939;BME280;45801;51.810;19.444;2023-03-18T13:09:46;99121.14;;;15.67;28.60
59939;BME280;45801;51.810;19.444;2023-03-18T13:12:20;99117.77;;;15.58;29.79
59939;BME280;45801;51.810;19.444;2023-03-18T13:15:00;99121.01;;;15.46;29.63
59939;BME280;45801;51.810;19.444;2023-03-18T13:17:32;99115.82;;;15.34;29.79
59939;BME280;45801;51.810;19.444;2023-03-18T13:20:12;99115.11;;;15.26;29.01
59939;BME280;45801;51.810;19.444;2023-03-18T13:31:21;99117.29;;;14.63;30.25
59939;BME280;45801;51.810;19.444;2023-03-18T13:33:55;99117.21;;;14.46;30.64
59939;BME280;45801;51.810;19.444;2023-03-18T13:36:41;99118.40;;;14.38;30.93
59939;BME280;45801;51.810;19.444;2023-03-18T13:39:25;99118.26;;;14.33;31.19
59939;BME280;45801;51.810;19.444;2023-03-18T13:42:07;99116.98;;;14.31;30.88
59939;BME280;45801;51.810;19.444;2023-03-18T13:47:37;99115.39;;;14.30;30.31
59939;BME280;45801;51.810;19.444;2023-03-18T13:52:48;99114.81;;;14.28;31.22
59939;BME280;45801;51.810;19.444;2023-03-18T13:55:33;99113.38;;;14.27;30.77
59939;BME280;45801;51.810;19.444;2023-03-18T14:00:37;99118.91;;;14.18;31.47
59939;BME280;45801;51.810;19.444;2023-03-18T14:03:15;99118.50;;;14.15;31.77
59939;BME280;45801;51.810;19.444;2023-03-18T14:05:50;99119.30;;;14.18;31.87
59939;BME280;45801;51.810;19.444;2023-03-18T14:13:53;99114.92;;;14.33;31.48
59939;BME280;45801;51.810;19.444;2023-03-18T14:16:23;99116.14;;;14.39;31.57
59939;BME280;45801;51.810;19.444;2023-03-18T14:19:01;99115.23;;;14.45;32.72
59939;BME280;45801;51.810;19.444;2023-03-18T14:21:33;99106.96;;;14.59;33.32
59939;BME280;45801;51.810;19.444;2023-03-18T14:24:12;99107.04;;;14.75;34.23
59939;BME280;45801;51.810;19.444;2023-03-18T14:29:45;99098.73;;;15.05;33.50
59939;BME280;45801;51.810;19.444;2023-03-18T14:32:28;99089.56;;;15.12;31.39
59939;BME280;45801;51.810;19.444;2023-03-18T14:34:58;99086.29;;;15.08;30.61
59939;BME280;45801;51.810;19.444;2023-03-18T14:37:30;99086.77;;;15.06;31.36
59939;BME280;45801;51.810;19.444;2023-03-18T14:40:00;99087.27;;;15.04;30.14
59939;BME280;45801;51.810;19.444;2023-03-18T14:42:34;99088.24;;;15.00;30.55
59939;BME280;45801;51.810;19.444;2023-03-18T14:45:13;99090.52;;;14.92;30.09
59939;BME280;45801;51.810;19.444;2023-03-18T14:47:53;99090.01;;;14.78;30.05
59939;BME280;45801;51.810;19.444;2023-03-18T14:53:25;99088.05;;;14.63;29.89